createdAt,value
2023-02-15T00:00:29.803Z,5.80
2023-02-15T00:02:58.828Z,5.84
2023-02-15T00:05:30.365Z,5.83
2023-02-15T00:07:59.212Z,5.79
2023-02-15T00:10:27.708Z,5.70
2023-02-15T00:12:57.401Z,5.79
2023-02-15T00:15:38.513Z,5.67
2023-02-15T00:18:09.606Z,5.60
2023-02-15T00:20:58.816Z,5.63
2023-02-15T00:23:37.535Z,5.58
2023-02-15T00:26:11.131Z,5.50
2023-02-15T00:28:41.487Z,5.55
2023-02-15T00:31:15.244Z,5.56
2023-02-15T00:33:46.512Z,5.49
2023-02-15T00:36:40.545Z,5.24
2023-02-15T00:39:12.629Z,5.41
2023-02-15T00:41:44.481Z,5.42
2023-02-15T00:47:14.206Z,5.39
2023-02-15T00:49:48.320Z,5.40
2023-02-15T00:52:20.789Z,5.39
2023-02-15T00:54:59.937Z,5.21
2023-02-15T00:57:29.980Z,5.32
2023-02-15T00:59:59.140Z,5.26
2023-02-15T01:02:29.058Z,5.16
2023-02-15T01:04:58.856Z,5.27
2023-02-15T01:07:44.756Z,5.26
2023-02-15T01:10:27.372Z,5.22
2023-02-15T01:12:57.419Z,5.22
2023-02-15T01:15:26.930Z,5.10
2023-02-15T01:17:56.889Z,5.12
2023-02-15T01:20:36.647Z,5.08
2023-02-15T01:25:56.470Z,4.95
2023-02-15T01:28:46.311Z,5.07
2023-02-15T01:31:23.395Z,5.09
2023-02-15T01:33:54.068Z,4.98
2023-02-15T01:36:25.478Z,4.83
2023-02-15T01:38:57.752Z,4.96
2023-02-15T01:41:32.936Z,4.91
2023-02-15T01:44:07.451Z,4.98
2023-02-15T01:46:43.362Z,4.97
2023-02-15T01:49:20.577Z,4.97
2023-02-15T01:51:54.067Z,4.98
2023-02-15T01:54:32.670Z,4.91
2023-02-15T01:57:16.312Z,4.89
2023-02-15T02:00:03.526Z,4.91
2023-02-15T02:02:47.443Z,4.86
2023-02-15T02:05:32.313Z,4.75
2023-02-15T02:08:04.786Z,4.86
2023-02-15T02:10:38.236Z,4.88
2023-02-15T02:13:10.074Z,4.84
2023-02-15T02:15:50.629Z,4.80
2023-02-15T02:18:51.987Z,4.73
2023-02-15T02:22:14.559Z,4.82
2023-02-15T02:25:41.153Z,4.71
2023-02-15T02:28:35.885Z,4.71
2023-02-15T02:31:52.104Z,4.72
2023-02-15T02:37:27.802Z,4.69
2023-02-15T02:40:05.312Z,4.73
2023-02-15T02:42:41.966Z,4.63
2023-02-15T02:45:29.827Z,4.70
2023-02-15T02:48:05.448Z,4.66
2023-02-15T02:50:36.516Z,4.65
2023-02-15T02:53:08.047Z,4.65
2023-02-15T02:55:55.305Z,4.62
2023-02-15T02:58:35.733Z,4.60
2023-02-15T03:01:22.418Z,4.60
2023-02-15T03:03:57.213Z,4.55
2023-02-15T03:06:37.796Z,4.57
2023-02-15T03:09:22.683Z,4.42
2023-02-15T03:11:52.708Z,4.46
2023-02-15T03:14:26.406Z,4.38
2023-02-15T03:17:05.264Z,4.42
2023-02-15T03:19:36.592Z,4.32
2023-02-15T03:22:13.177Z,4.34
2023-02-15T03:24:52.693Z,4.34
2023-02-15T03:27:29.811Z,4.40
2023-02-15T03:30:02.254Z,4.38
2023-02-15T03:32:37.508Z,4.35
2023-02-15T03:35:06.398Z,4.32
2023-02-15T03:37:42.941Z,4.42
2023-02-15T03:40:38.142Z,4.54
2023-02-15T03:43:16.182Z,4.51
2023-02-15T03:45:57.218Z,4.56
2023-02-15T03:48:32.815Z,4.44
2023-02-15T03:51:33.427Z,4.56
2023-02-15T03:54:08.859Z,4.51
2023-02-15T03:56:38.873Z,4.58
2023-02-15T03:59:25.821Z,4.63
2023-02-15T04:02:11.865Z,4.67
2023-02-15T04:04:46.342Z,4.66
2023-02-15T04:07:18.018Z,4.74
2023-02-15T04:10:06.454Z,4.69
2023-02-15T04:12:35.229Z,4.55
2023-02-15T04:15:21.995Z,4.76
2023-02-15T04:17:50.947Z,4.70
2023-02-15T04:33:38.896Z,4.78
2023-02-15T04:36:12.219Z,4.44
2023-02-15T04:38:42.108Z,4.86
2023-02-15T04:41:18.558Z,4.78
2023-02-15T04:43:53.496Z,5.07
2023-02-15T04:46:24.740Z,5.04
2023-02-15T04:48:54.282Z,5.06
2023-02-15T04:51:23.588Z,5.05
2023-02-15T04:53:54.989Z,5.03
2023-02-15T04:56:25.615Z,5.05
2023-02-15T04:58:58.624Z,5.07
2023-02-15T05:01:28.668Z,4.99
2023-02-15T05:03:58.997Z,5.04
2023-02-15T05:06:28.193Z,5.06
2023-02-15T05:09:07.485Z,4.97
2023-02-15T05:11:40.858Z,4.84
2023-02-15T05:14:14.378Z,4.81
2023-02-15T05:16:48.502Z,4.68
2023-02-15T05:19:32.451Z,4.75
2023-02-15T05:22:02.547Z,4.93
2023-02-15T05:24:49.082Z,4.90
2023-02-15T05:27:40.319Z,5.05
2023-02-15T05:30:24.014Z,5.08
2023-02-15T05:32:54.691Z,4.93
2023-02-15T05:35:40.306Z,5.00
2023-02-15T05:38:13.211Z,4.96
2023-02-15T05:43:39.548Z,5.03
2023-02-15T05:49:14.298Z,4.94
2023-02-15T05:51:44.438Z,4.94
2023-02-15T05:54:17.508Z,4.94
2023-02-15T05:56:59.706Z,4.92
2023-02-15T05:59:33.729Z,4.89
2023-02-15T06:02:20.008Z,4.86
2023-02-15T06:04:49.528Z,4.80
2023-02-15T06:07:25.358Z,4.81
2023-02-15T06:12:37.897Z,4.80
2023-02-15T06:18:15.516Z,4.78
2023-02-15T06:21:01.328Z,4.78
2023-02-15T06:29:09.037Z,4.75
2023-02-15T06:31:52.922Z,4.66
2023-02-15T06:37:33.126Z,4.59
2023-02-15T06:43:06.475Z,4.63
2023-02-15T06:45:43.271Z,4.88
2023-02-15T06:48:13.881Z,4.63
2023-02-15T06:51:12.780Z,4.62
2023-02-15T06:53:47.718Z,4.84
2023-02-15T06:56:25.081Z,4.74
2023-02-15T06:59:03.131Z,5.08
2023-02-15T07:04:31.741Z,4.79
2023-02-15T07:09:53.521Z,4.86
2023-02-15T08:23:54.129Z,5.60
2023-02-15T08:26:28.582Z,5.82
2023-02-15T08:28:58.356Z,5.89
2023-02-15T08:31:28.133Z,6.28
2023-02-15T08:34:02.698Z,6.00
2023-02-15T08:36:35.433Z,6.29
2023-02-15T08:39:09.557Z,6.32
2023-02-15T08:41:41.722Z,6.81
2023-02-15T08:44:12.655Z,6.85
2023-02-15T08:46:47.230Z,6.89
2023-02-15T08:49:21.194Z,6.57
2023-02-15T08:51:51.854Z,6.98
2023-02-15T08:54:24.128Z,7.07
2023-02-15T08:56:54.063Z,6.97
2023-02-15T08:59:28.256Z,7.63
2023-02-15T09:01:59.157Z,7.71
2023-02-15T09:04:28.808Z,7.35
2023-02-15T09:06:58.964Z,7.65
2023-02-15T09:09:29.806Z,7.68
2023-02-15T09:11:59.813Z,7.67
2023-02-15T09:14:30.862Z,7.59
2023-02-15T09:17:00.489Z,7.53
2023-02-15T09:19:33.796Z,7.14
2023-02-15T09:22:06.657Z,7.65
2023-02-15T09:24:40.473Z,7.54
2023-02-15T09:27:13.706Z,7.86
2023-02-15T09:29:43.612Z,8.27
2023-02-15T09:32:21.154Z,8.48
2023-02-15T09:34:54.209Z,8.48
2023-02-15T09:37:23.137Z,8.49
2023-02-15T09:39:53.447Z,7.99
2023-02-15T09:42:51.520Z,8.47
2023-02-15T09:45:35.455Z,8.89
2023-02-15T09:48:29.948Z,8.17
2023-02-15T09:51:23.783Z,8.88
2023-02-15T09:54:19.564Z,9.27
2023-02-15T09:57:03.297Z,9.10
2023-02-15T09:59:43.260Z,9.77
2023-02-15T10:02:30.638Z,9.94
2023-02-15T10:05:21.067Z,10.51
2023-02-15T10:08:26.390Z,10.65
2023-02-15T10:11:24.673Z,10.32
2023-02-15T10:14:15.298Z,10.42
2023-02-15T10:17:00.192Z,10.73
2023-02-15T10:19:43.566Z,11.83
2023-02-15T10:22:30.303Z,11.82
2023-02-15T10:25:39.172Z,12.26
2023-02-15T10:28:18.664Z,12.42
2023-02-15T10:30:52.759Z,12.28
2023-02-15T10:33:40.520Z,12.57
2023-02-15T10:36:29.142Z,12.99
2023-02-15T10:39:10.206Z,13.17
2023-02-15T10:41:50.397Z,12.78
2023-02-15T10:44:50.809Z,12.60
2023-02-15T10:47:51.531Z,12.35
2023-02-15T10:50:46.017Z,12.69
2023-02-15T10:53:45.805Z,12.48
2023-02-15T10:56:37.409Z,12.21
2023-02-15T10:59:29.256Z,12.42
2023-02-15T11:02:15.235Z,12.41
2023-02-15T11:05:23.266Z,12.86
2023-02-15T11:07:59.086Z,12.51
2023-02-15T11:10:38.261Z,12.47
2023-02-15T11:13:12.993Z,12.72
2023-02-15T11:15:48.149Z,13.49
2023-02-15T11:18:25.206Z,13.30
2023-02-15T11:21:01.244Z,13.15
2023-02-15T11:23:32.042Z,12.09
2023-02-15T11:26:04.922Z,13.26
2023-02-15T11:28:39.117Z,12.55
2023-02-15T11:31:21.326Z,13.29
2023-02-15T11:33:54.909Z,12.98
2023-02-15T11:36:31.322Z,13.36
2023-02-15T11:39:11.419Z,13.89
2023-02-15T11:41:52.822Z,13.57
2023-02-15T11:44:34.995Z,13.45
2023-02-15T11:47:05.270Z,13.39
2023-02-15T11:49:37.204Z,14.19
2023-02-15T11:52:13.274Z,13.93
2023-02-15T11:54:46.122Z,13.69
2023-02-15T11:57:23.251Z,13.83
2023-02-15T12:00:00.501Z,14.50
2023-02-15T12:02:31.901Z,14.57
2023-02-15T12:05:04.100Z,14.44
2023-02-15T12:07:41.227Z,14.59
2023-02-15T12:10:29.963Z,14.05
2023-02-15T12:13:16.956Z,14.17
2023-02-15T12:15:53.697Z,13.90
2023-02-15T12:18:43.011Z,14.21
2023-02-15T12:21:28.425Z,14.07
2023-02-15T12:24:14.518Z,14.31
2023-02-15T12:26:46.765Z,14.85
2023-02-15T12:32:24.058Z,14.65
2023-02-15T12:35:01.364Z,15.06
2023-02-15T12:37:39.334Z,14.65
2023-02-15T12:40:31.587Z,14.75
2023-02-15T12:43:10.253Z,14.44
2023-02-15T12:45:45.349Z,15.27
2023-02-15T12:48:23.352Z,15.19
2023-02-15T12:51:28.276Z,15.47
2023-02-15T12:54:05.580Z,15.56
2023-02-15T12:56:41.490Z,15.80
2023-02-15T12:59:23.238Z,16.29
2023-02-15T13:01:57.378Z,16.46
2023-02-15T13:04:31.046Z,16.18
2023-02-15T13:07:04.321Z,16.12
2023-02-15T13:09:42.257Z,16.33
2023-02-15T13:12:24.602Z,16.55
2023-02-15T13:14:58.340Z,16.45
2023-02-15T13:17:31.108Z,16.63
2023-02-15T13:20:04.229Z,16.57
2023-02-15T13:22:43.938Z,16.49
2023-02-15T13:25:22.179Z,16.54
2023-02-15T13:27:58.187Z,16.30
2023-02-15T13:30:33.596Z,16.38
2023-02-15T13:33:07.240Z,16.73
2023-02-15T13:35:53.246Z,16.70
2023-02-15T13:39:28.511Z,16.32
2023-02-15T13:42:08.212Z,16.19
2023-02-15T13:45:11.158Z,16.28
2023-02-15T13:47:58.796Z,16.08
2023-02-15T13:50:55.724Z,16.38
2023-02-15T13:54:00.680Z,16.18
2023-02-15T13:56:38.805Z,16.27
2023-02-15T13:59:32.320Z,16.08
2023-02-15T14:02:32.883Z,16.00
2023-02-15T14:05:32.273Z,15.40
2023-02-15T14:08:14.037Z,15.53
2023-02-15T14:10:55.974Z,15.36
2023-02-15T14:14:14.622Z,15.53
2023-02-15T14:17:06.786Z,15.60
2023-02-15T14:19:47.415Z,15.66
2023-02-15T14:22:29.415Z,15.63
2023-02-15T14:25:19.617Z,15.51
2023-02-15T14:28:00.655Z,15.38
2023-02-15T14:30:34.107Z,15.67
2023-02-15T14:33:10.213Z,15.13
2023-02-15T14:35:43.884Z,15.44
2023-02-15T14:38:54.090Z,15.82
2023-02-15T14:41:31.224Z,15.61
2023-02-15T14:44:11.254Z,15.65
2023-02-15T14:46:52.217Z,15.75
2023-02-15T14:49:26.574Z,15.12
2023-02-15T14:52:13.660Z,15.38
2023-02-15T14:55:06.520Z,15.38
2023-02-15T14:57:37.384Z,15.39
2023-02-15T15:00:39.375Z,15.86
2023-02-15T15:03:24.801Z,15.66
2023-02-15T15:06:00.625Z,15.23
2023-02-15T15:08:39.576Z,15.21
2023-02-15T15:11:51.214Z,15.46
2023-02-15T15:14:44.898Z,15.30
2023-02-15T15:17:19.459Z,15.39
2023-02-15T15:20:14.616Z,14.73
2023-02-15T15:22:46.018Z,15.14
2023-02-15T15:25:46.686Z,15.16
2023-02-15T15:29:02.159Z,15.00
2023-02-15T15:31:50.214Z,14.95
2023-02-15T15:35:03.492Z,14.70
2023-02-15T15:38:08.838Z,14.83
2023-02-15T15:41:26.615Z,14.27
2023-02-15T15:44:58.660Z,14.48
2023-02-15T15:47:56.136Z,14.16
2023-02-15T15:50:35.647Z,14.14
2023-02-15T15:53:07.432Z,13.54
2023-02-15T15:55:39.080Z,13.99
2023-02-15T15:58:13.183Z,14.14
2023-02-15T16:00:49.488Z,13.93
2023-02-15T16:03:25.762Z,14.20
2023-02-15T16:05:56.721Z,13.41
2023-02-15T16:08:36.010Z,13.87
2023-02-15T16:11:20.856Z,13.55
2023-02-15T16:13:56.529Z,13.37
2023-02-15T16:16:29.114Z,13.34
2023-02-15T16:19:02.934Z,13.12
2023-02-15T16:21:44.675Z,13.32
2023-02-15T16:24:53.557Z,13.01
2023-02-15T16:27:43.104Z,13.01
2023-02-15T16:30:44.375Z,12.84
2023-02-15T16:33:16.355Z,12.64
2023-02-15T16:36:00.635Z,12.75
2023-02-15T16:39:09.058Z,12.58
2023-02-15T16:41:47.002Z,12.69
2023-02-15T16:44:21.981Z,12.68
2023-02-15T16:46:56.458Z,12.78
2023-02-15T16:49:32.184Z,12.50
2023-02-15T16:52:04.707Z,12.28
2023-02-15T16:57:46.285Z,12.38
2023-02-15T17:00:24.774Z,12.35
2023-02-15T17:03:02.678Z,12.21
2023-02-15T17:05:36.446Z,11.77
2023-02-15T17:08:21.725Z,12.34
2023-02-15T17:11:18.302Z,12.36
2023-02-15T17:14:29.934Z,12.21
2023-02-15T17:17:31.300Z,12.25
2023-02-15T17:20:01.994Z,11.78
2023-02-15T17:22:32.782Z,11.86
2023-02-15T17:25:18.897Z,11.82
2023-02-15T17:27:55.073Z,11.89
2023-02-15T17:30:33.344Z,11.88
2023-02-15T17:33:12.256Z,11.81
2023-02-15T17:38:44.803Z,11.69
2023-02-15T17:44:15.303Z,11.72
2023-02-15T17:46:46.355Z,11.80
2023-02-15T17:49:35.001Z,11.81
2023-02-15T17:52:08.934Z,11.75
2023-02-15T17:54:55.834Z,11.37
2023-02-15T17:57:29.015Z,11.66
2023-02-15T18:00:16.719Z,11.65
2023-02-15T18:03:07.928Z,11.41
2023-02-15T18:05:54.274Z,11.52
2023-02-15T18:08:48.653Z,11.39
2023-02-15T18:11:37.647Z,11.55
2023-02-15T18:14:09.249Z,11.55
2023-02-15T18:16:43.509Z,11.29
2023-02-15T18:19:19.438Z,11.23
2023-02-15T18:21:49.975Z,11.26
2023-02-15T18:24:27.911Z,10.84
2023-02-15T18:26:57.603Z,11.04
2023-02-15T18:29:27.374Z,10.98
2023-02-15T18:31:58.373Z,10.85
2023-02-15T18:34:32.312Z,10.84
2023-02-15T18:37:03.707Z,11.01
2023-02-15T18:39:41.090Z,11.07
2023-02-15T18:42:29.308Z,11.06
2023-02-15T18:47:47.533Z,11.11
2023-02-15T18:50:18.721Z,11.15
2023-02-15T18:52:51.424Z,11.44
2023-02-15T18:55:27.208Z,11.25
2023-02-15T18:57:58.974Z,11.00
2023-02-15T19:00:33.223Z,11.27
2023-02-15T19:03:05.560Z,11.48
2023-02-15T19:05:37.338Z,11.54
2023-02-15T19:08:09.580Z,11.60
2023-02-15T19:10:43.342Z,11.56
2023-02-15T19:13:30.034Z,11.56
2023-02-15T19:16:00.776Z,11.37
2023-02-15T19:18:35.231Z,11.42
2023-02-15T19:21:08.243Z,11.20
2023-02-15T19:23:37.985Z,11.17
2023-02-15T19:26:08.966Z,10.89
2023-02-15T19:28:39.586Z,10.75
2023-02-15T19:31:14.127Z,10.75
2023-02-15T19:33:44.408Z,10.88
2023-02-15T19:36:24.022Z,10.98
2023-02-15T19:38:56.856Z,11.06
2023-02-15T19:41:34.929Z,10.92
2023-02-15T19:44:04.523Z,11.22
2023-02-15T19:46:38.478Z,10.87
2023-02-15T19:49:12.529Z,11.01
2023-02-15T19:51:42.768Z,10.82
2023-02-15T19:54:32.470Z,10.92
2023-02-15T19:57:03.815Z,10.66
2023-02-15T19:59:37.504Z,10.53
2023-02-15T20:02:09.355Z,10.73
2023-02-15T20:04:38.017Z,10.36
2023-02-15T20:07:27.065Z,10.46
2023-02-15T20:09:59.325Z,10.50
2023-02-15T20:12:30.611Z,10.73
2023-02-15T20:15:02.028Z,10.66
2023-02-15T20:17:31.273Z,10.73
2023-02-15T20:20:00.485Z,10.63
2023-02-15T20:22:29.818Z,10.47
2023-02-15T20:25:00.095Z,10.40
2023-02-15T20:27:30.679Z,10.58
2023-02-15T20:30:07.092Z,10.61
2023-02-15T20:32:36.058Z,10.28
2023-02-15T20:35:05.429Z,10.41
2023-02-15T20:37:35.095Z,10.10
2023-02-15T20:40:17.641Z,10.38
2023-02-15T20:43:05.144Z,9.94
2023-02-15T20:45:35.754Z,10.11
2023-02-15T20:54:01.932Z,10.48
2023-02-15T20:56:36.326Z,10.20
2023-02-15T20:59:32.148Z,10.45
2023-02-15T21:02:22.382Z,10.49
2023-02-15T21:04:53.244Z,10.44
2023-02-15T21:07:27.412Z,10.39
2023-02-15T21:09:56.844Z,10.62
2023-02-15T21:12:34.071Z,10.55
2023-02-15T21:15:26.056Z,10.49
2023-02-15T21:17:57.406Z,10.24
2023-02-15T21:20:28.684Z,10.14
2023-02-15T21:22:58.893Z,10.17
2023-02-15T21:25:35.235Z,10.22
2023-02-15T21:28:05.119Z,10.10
2023-02-15T21:30:37.905Z,10.46
2023-02-15T21:33:07.506Z,10.45
2023-02-15T21:35:40.561Z,10.39
2023-02-15T21:38:17.930Z,10.01
2023-02-15T21:40:47.530Z,10.12
2023-02-15T21:43:35.733Z,9.96
2023-02-15T21:46:33.077Z,10.30
2023-02-15T21:49:02.566Z,10.16
2023-02-15T21:51:51.789Z,10.39
2023-02-15T21:54:25.359Z,10.09
2023-02-15T21:56:54.730Z,10.09
2023-02-15T21:59:28.238Z,9.97
2023-02-15T22:02:00.979Z,10.14
2023-02-15T22:04:35.513Z,10.18
2023-02-15T22:07:06.130Z,10.35
2023-02-15T22:09:35.309Z,10.21
2023-02-15T22:12:05.985Z,10.12
2023-02-15T22:14:44.003Z,10.08
2023-02-15T22:17:21.360Z,9.68
2023-02-15T22:19:54.425Z,10.02
2023-02-15T22:22:23.840Z,10.14
2023-02-15T22:24:56.367Z,10.01
2023-02-15T22:27:27.827Z,10.06
2023-02-15T22:29:58.414Z,9.83
2023-02-15T22:32:30.461Z,9.79
2023-02-15T22:35:00.219Z,10.11
2023-02-15T22:37:29.781Z,9.87
2023-02-15T22:39:59.726Z,10.02
2023-02-15T22:42:30.669Z,9.56
2023-02-15T22:45:01.775Z,9.83
2023-02-15T22:47:34.730Z,9.68
2023-02-15T22:50:06.301Z,9.81
2023-02-15T22:52:35.694Z,9.39
2023-02-15T22:55:06.250Z,9.79
2023-02-15T22:57:37.759Z,9.59
2023-02-15T23:00:10.872Z,9.79
2023-02-15T23:02:42.745Z,9.56
2023-02-15T23:05:22.217Z,9.81
2023-02-15T23:07:53.456Z,9.66
2023-02-15T23:10:27.611Z,9.61
2023-02-15T23:13:16.470Z,9.77
2023-02-15T23:15:49.267Z,9.65
2023-02-15T23:18:24.109Z,9.52
2023-02-15T23:20:56.956Z,9.65
2023-02-15T23:23:35.411Z,9.58
2023-02-15T23:26:06.857Z,9.07
2023-02-15T23:28:40.266Z,9.46
2023-02-15T23:31:20.371Z,9.64
2023-02-15T23:33:52.881Z,9.61
2023-02-15T23:36:32.340Z,9.42
2023-02-15T23:39:22.278Z,9.63
2023-02-15T23:41:51.219Z,9.43
2023-02-15T23:44:21.169Z,9.30
2023-02-15T23:46:51.612Z,9.28
2023-02-15T23:49:22.554Z,9.43
2023-02-15T23:51:54.766Z,9.37
2023-02-15T23:54:26.477Z,9.47
2023-02-15T23:57:01.338Z,9.45
2023-02-15T23:59:40.283Z,9.08
